createdAt,value
2017-12-04T00:04:41.402Z,78.78
2017-12-04T00:09:41.359Z,79.07
2017-12-04T00:14:41.018Z,78.69
2017-12-04T00:19:41.247Z,78.69
2017-12-04T00:24:41.147Z,78.59
2017-12-04T00:29:41.090Z,79.36
2017-12-04T00:34:41.032Z,79.27
2017-12-04T00:39:40.972Z,79.8
2017-12-04T00:44:40.906Z,79.52
2017-12-04T00:49:40.842Z,79.61
2017-12-04T00:54:40.779Z,79.8
2017-12-04T00:59:40.733Z,79.8
2017-12-04T01:04:40.660Z,79.61
2017-12-04T01:09:40.609Z,80.19
2017-12-04T01:14:40.547Z,79.8
2017-12-04T01:19:40.479Z,80.19
2017-12-04T01:24:40.703Z,79.8
2017-12-04T01:29:40.373Z,79.8
2017-12-04T01:34:40.303Z,79.8
2017-12-04T01:39:40.233Z,79.76
2017-12-04T01:44:40.184Z,79.76
2017-12-04T01:49:40.120Z,79.86
2017-12-04T01:54:40.083Z,79.76
2017-12-04T01:59:40.077Z,79.76
2017-12-04T02:04:40.061Z,79.76
2017-12-04T02:09:39.869Z,80.15
2017-12-04T02:14:39.550Z,79.76
2017-12-04T02:19:39.795Z,79.57
2017-12-04T02:24:39.686Z,79.86
2017-12-04T02:29:39.630Z,79.76
2017-12-04T02:34:39.563Z,79.76
2017-12-04T02:39:39.499Z,79.76
2017-12-04T02:44:39.434Z,79.47
2017-12-04T02:49:39.112Z,79.86
2017-12-04T02:54:39.298Z,79.76
2017-12-04T02:59:39.244Z,79.28
2017-12-04T03:04:39.198Z,79.76
2017-12-04T03:09:39.116Z,80.34
2017-12-04T03:14:39.064Z,79.57
2017-12-04T03:19:38.986Z,79.47
2017-12-04T03:24:38.927Z,79.57
2017-12-04T03:29:38.862Z,79.86
2017-12-04T03:34:38.800Z,79.57
2017-12-04T03:39:38.794Z,79.67
2017-12-04T03:44:38.516Z,79.76
2017-12-04T03:49:38.610Z,79.47
2017-12-04T03:54:38.546Z,79.57
2017-12-04T03:59:38.478Z,80.01
2017-12-04T04:04:38.415Z,79.53
2017-12-04T04:09:38.348Z,79.47
2017-12-04T04:14:38.356Z,79.67
2017-12-04T04:19:38.211Z,79.57
2017-12-04T04:24:38.132Z,79.53
2017-12-04T04:29:38.059Z,79.57
2017-12-04T04:34:37.994Z,79.38
2017-12-04T04:39:37.930Z,79.57
2017-12-04T04:44:37.856Z,79.53
2017-12-04T04:49:37.824Z,79.44
2017-12-04T04:54:37.716Z,79.24
2017-12-04T04:59:37.646Z,79.44
2017-12-04T05:04:37.567Z,79.24
2017-12-04T05:09:37.246Z,79.63
2017-12-04T05:14:37.445Z,79.72
2017-12-04T05:19:37.366Z,79.91
2017-12-04T05:24:37.296Z,79.91
2017-12-04T05:29:37.224Z,79.91
2017-12-04T05:34:36.923Z,80.2
2017-12-04T05:39:37.086Z,80.01
2017-12-04T05:44:37.031Z,80.01
2017-12-04T05:49:36.956Z,80.01
2017-12-04T05:54:36.978Z,80.2
2017-12-04T05:59:36.813Z,80.58
2017-12-04T06:04:36.750Z,80.4
2017-12-04T06:09:36.684Z,80.78
2017-12-04T06:14:36.613Z,80.78
2017-12-04T06:19:36.535Z,80.4
2017-12-04T06:24:36.614Z,80.97
2017-12-04T06:29:36.463Z,80.87
2017-12-04T06:34:36.341Z,80.83
2017-12-04T06:39:36.269Z,80.87
2017-12-04T06:44:36.199Z,80.2
2017-12-04T06:49:36.137Z,79.91
2017-12-04T06:54:36.073Z,80.2
2017-12-04T06:59:36.091Z,79.82
2017-12-04T07:04:35.944Z,79.72
2017-12-04T07:09:35.874Z,79.86
2017-12-04T07:14:35.556Z,79.47
2017-12-04T07:19:35.755Z,79.32
2017-12-04T07:24:35.690Z,79.22
2017-12-04T07:29:35.645Z,79.61
2017-12-04T07:34:35.576Z,79.22
2017-12-04T07:39:35.510Z,79.03
2017-12-04T07:44:35.452Z,79.42
2017-12-04T07:49:35.138Z,79.52
2017-12-04T07:54:35.342Z,79.42
2017-12-04T07:59:35.276Z,79.52
2017-12-04T08:04:35.226Z,79.52
2017-12-04T08:09:35.174Z,79.42
2017-12-04T08:14:35.105Z,79.61
2017-12-04T08:19:34.776Z,79.52
2017-12-04T08:24:35.031Z,80.38
2017-12-04T08:29:34.933Z,82.34
2017-12-04T08:34:34.873Z,82.15
2017-12-04T08:39:34.817Z,83.59
2017-12-04T08:44:34.745Z,82.92
2017-12-04T08:49:34.679Z,83.01
2017-12-04T08:54:34.637Z,82.82
2017-12-04T08:59:34.566Z,82.24
2017-12-04T09:04:42.325Z,83.01
2017-12-04T09:09:34.442Z,82.24
2017-12-04T09:14:34.391Z,82.3
2017-12-04T09:19:34.330Z,82.3
2017-12-04T09:24:34.267Z,82.01
2017-12-04T09:29:34.307Z,81.53
2017-12-04T09:34:34.179Z,81.43
2017-12-04T09:39:34.082Z,81.05
2017-12-04T09:44:33.761Z,80.66
2017-12-04T09:49:33.961Z,80.76
2017-12-04T09:54:33.897Z,80.96
2017-12-04T09:59:33.851Z,80.96
2017-12-04T10:04:33.778Z,80.86
2017-12-04T10:09:33.724Z,80.96
2017-12-04T10:14:33.662Z,81.24
2017-12-04T10:19:33.598Z,81.24
2017-12-04T10:24:33.547Z,81.53
2017-12-04T10:29:33.473Z,81.72
2017-12-04T10:34:33.161Z,81.24
2017-12-04T10:39:33.361Z,81.09
2017-12-04T10:44:33.383Z,81.15
2017-12-04T10:49:33.233Z,81.24
2017-12-04T10:54:32.921Z,81.28
2017-12-04T10:59:33.120Z,81.09
2017-12-04T11:04:33.062Z,82.15
2017-12-04T11:09:33.012Z,81.96
2017-12-04T11:14:33.029Z,81.76
2017-12-04T11:19:32.877Z,82.05
2017-12-04T11:24:32.991Z,81.86
2017-12-04T11:29:32.966Z,81.76
2017-12-04T11:34:32.692Z,81.48
2017-12-04T11:39:32.631Z,81.86
2017-12-04T11:44:32.572Z,81.38
2017-12-04T11:49:32.520Z,81.67
2017-12-04T11:54:32.460Z,81.67
2017-12-04T11:59:32.154Z,81.57
2017-12-04T12:04:32.344Z,81.28
2017-12-04T12:09:32.292Z,82.24
2017-12-04T12:14:32.222Z,82.15
2017-12-04T12:19:32.179Z,81.86
2017-12-04T12:24:32.104Z,82.15
2017-12-04T12:29:31.800Z,82.34
2017-12-04T12:34:32.000Z,82.15
2017-12-04T12:39:31.929Z,82.29
2017-12-04T12:44:31.881Z,82.43
2017-12-04T12:49:31.818Z,82.38
2017-12-04T12:54:31.764Z,82.92
2017-12-04T12:59:31.704Z,83.15
2017-12-04T13:04:31.644Z,82.96
2017-12-04T13:09:31.584Z,83.25
2017-12-04T13:14:31.324Z,82.76
2017-12-04T13:19:31.598Z,82.67
2017-12-04T13:24:31.257Z,82.43
2017-12-04T13:29:31.353Z,82.24
2017-12-04T13:34:31.294Z,82.53
2017-12-04T13:39:31.230Z,82.73
2017-12-04T13:44:31.178Z,82.15
2017-12-04T13:49:31.202Z,81.96
2017-12-04T13:54:31.070Z,82.05
2017-12-04T13:59:31.014Z,81.67
2017-12-04T14:04:30.947Z,81.67
2017-12-04T14:09:30.962Z,82.05
2017-12-04T14:14:30.965Z,81.28
2017-12-04T14:19:30.770Z,81.38
2017-12-04T14:24:30.709Z,81.57
2017-12-04T14:29:30.669Z,81.48
2017-12-04T14:34:30.593Z,81.52
2017-12-04T14:39:30.529Z,81.19
2017-12-04T14:44:30.482Z,81.09
2017-12-04T14:49:30.172Z,81.67
2017-12-04T14:54:30.349Z,81.38
2017-12-04T14:59:30.293Z,81.28
2017-12-04T15:04:30.236Z,81.57
2017-12-04T15:09:30.163Z,81.57
2017-12-04T15:14:30.122Z,81.57
2017-12-04T15:19:30.057Z,81.48
2017-12-04T15:24:30.005Z,81.38
2017-12-04T15:29:29.947Z,81.57
2017-12-04T15:34:29.883Z,81.67
2017-12-04T15:39:29.833Z,81.48
2017-12-04T15:44:29.817Z,81.67
2017-12-04T15:49:29.727Z,81.96
2017-12-04T15:54:29.675Z,81.86
2017-12-04T15:59:29.597Z,82.15
2017-12-04T16:04:29.596Z,81.86
2017-12-04T16:09:29.481Z,81.76
2017-12-04T16:14:29.440Z,81.48
2017-12-04T16:19:29.368Z,81.57
2017-12-04T16:24:29.313Z,81.57
2017-12-04T16:29:29.349Z,81.76
2017-12-04T16:34:29.194Z,81.86
2017-12-04T16:39:29.126Z,81.57
2017-12-04T16:44:29.068Z,81.76
2017-12-04T16:49:29.020Z,81.61
2017-12-04T16:54:28.962Z,81.23
2017-12-04T16:59:28.935Z,81.37
2017-12-04T17:04:28.851Z,80.88
2017-12-04T17:09:28.813Z,81.46
2017-12-04T17:14:28.763Z,81.37
2017-12-04T17:19:28.684Z,82.14
2017-12-04T17:24:28.632Z,83.39
2017-12-04T17:29:28.576Z,83.58
2017-12-04T17:34:28.523Z,83.58
2017-12-04T17:39:28.492Z,83.77
2017-12-04T17:44:28.442Z,83.39
2017-12-04T17:49:28.356Z,83.44
2017-12-04T17:54:28.318Z,83.06
2017-12-04T17:59:28.012Z,83.25
2017-12-04T18:04:28.198Z,83.39
2017-12-04T18:09:28.152Z,83.29
2017-12-04T18:14:28.088Z,82.71
2017-12-04T18:19:28.027Z,82.19
2017-12-04T18:24:28.099Z,82.09
2017-12-04T18:29:27.925Z,81.71
2017-12-04T18:34:27.972Z,81.61
2017-12-04T18:39:27.811Z,81.65
2017-12-04T18:44:27.767Z,81.27
2017-12-04T18:49:27.713Z,81.27
2017-12-04T18:54:27.391Z,80.69
2017-12-04T18:59:27.595Z,80.98
2017-12-04T19:04:27.548Z,81.04
2017-12-04T19:09:27.493Z,81.17
2017-12-04T19:14:27.434Z,80.55
2017-12-04T19:19:27.367Z,80.94
2017-12-04T19:24:27.320Z,81.46
2017-12-04T19:29:27.271Z,80.88
2017-12-04T19:34:27.211Z,81.17
2017-12-04T19:39:27.159Z,80.79
2017-12-04T19:44:27.083Z,81.07
2017-12-04T19:49:26.780Z,81.27
2017-12-04T19:54:27.020Z,81.56
2017-12-04T19:59:26.921Z,81.75
2017-12-04T20:04:26.621Z,82.32
2017-12-04T20:09:26.825Z,81.79
2017-12-04T20:14:26.767Z,81.79
2017-12-04T20:19:26.731Z,81.65
2017-12-04T20:24:26.663Z,81.4
2017-12-04T20:29:26.614Z,81.12
2017-12-04T20:34:26.553Z,80.63
2017-12-04T20:39:26.985Z,80.92
2017-12-04T20:44:26.478Z,80.38
2017-12-04T20:49:26.410Z,79.9
2017-12-04T20:54:26.451Z,79.52
2017-12-04T20:59:26.307Z,79.71
2017-12-04T21:04:26.261Z,79.77
2017-12-04T21:09:26.205Z,80.06
2017-12-04T21:14:26.149Z,79.77
2017-12-04T21:19:26.100Z,79.96
2017-12-04T21:24:26.035Z,80.63
2017-12-04T21:29:25.986Z,81.5
2017-12-04T21:34:25.952Z,82.31
2017-12-04T21:39:25.628Z,82.31
2017-12-04T21:44:25.838Z,81.45
2017-12-04T21:49:25.795Z,81.06
2017-12-04T21:54:25.742Z,80.68
2017-12-04T21:59:25.704Z,80.96
2017-12-04T22:04:25.656Z,80.87
2017-12-04T22:09:25.589Z,80.44
2017-12-04T22:14:25.548Z,80.92
2017-12-04T22:19:25.488Z,80.73
2017-12-04T22:24:25.195Z,81.6
2017-12-04T22:29:25.467Z,80.73
2017-12-04T22:34:25.334Z,80.73
2017-12-04T22:39:25.009Z,81.3
2017-12-04T22:44:25.061Z,81.27
2017-12-04T22:49:25.157Z,81.17
2017-12-04T22:54:25.103Z,81.17
2017-12-04T22:59:25.113Z,80.69
2017-12-04T23:04:25.022Z,81.17
2017-12-04T23:09:24.943Z,81.13
2017-12-04T23:14:24.627Z,81.13
2017-12-04T23:19:24.844Z,80.84
2017-12-04T23:24:24.769Z,80.55
2017-12-04T23:29:24.721Z,80.94
2017-12-04T23:34:24.663Z,80.65
2017-12-04T23:39:24.599Z,80.55
2017-12-04T23:44:24.538Z,80.46
2017-12-04T23:49:24.229Z,80.84
2017-12-04T23:54:24.165Z,80.94
2017-12-04T23:59:24.363Z,80.75
